MBS International Airport

Airport
ICAO code: 
KMBS
Summary
ICAO Region: 
NAM
Territory: 
Location: 
Saginaw, Michigan,
Coordinates: 
Aerial View: 
43° 31' 54.051" N, 84° 4' 55.688" W
Airport CFIT: 
Altimeter Temperature Error Correction
Metar
Observation
KMBS 021553Z 30016G26KT 10SM OVC039 08/00 A2960 RMK AO2 PK WND 32042/1529 SLP028 T00780000
Station
Saginaw, MBS International Airport
Date/Time
2021-12-02 15:53:00
Wind direction
300°
Wind speed
16 kts
Lowest cloud amount
overcast
Temperature
7.8°C
Dew point
0°C
Humidity
57%
Weather condition
n/a

Description

MBS International Airport is located in Freeland, Michigan and serves the nearby cities of Midland, Bay City and Saginaw. It was formerly named Tri City Airport or Freeland Tri-City Airport.

Climatology

Humid Continental climate (Köppen climate classification Dfb) - Variable weather patterns and a large seasonal temperature variance. Summers are often warm and humid with frequent thunderstorms and winters can be very cold with frequent snowfall and persistent snow cover.

Runways

Designator Length Width Surface Rops
14/32 1951 46 ASP Yes/Yes
5/23 2439 46 ASP Yes/Yes
Airport map: 
Aerial View: 

SKYbrary Partners:

Safety knowledge contributed by: